In Rescue
 
Open Full Screen Window  High Contrast Mode
Wind Gusting 26 knots
15
July 13, 2020 11:06 PM CDT
Weather Information
Wind Direction
  180 °
Wind Speed
  15 kt (17 mph)
Wind Gust
  26 kt (30 mph)
Altimeter
29.77 in
Visibility
10 SM
Temperature
27° C
81° F
Dewpoint
18° C
64° F
Humidity
58%
1hr Rain Fall
00.00 in.
24hr Rain Fall
00.00 in.
Sky Condition
Scattered @ 6,000 ft
VFR

METAR KANE 140406Z AUTO 18015G26KT 10SM SCT060 27/18 A2977 RMK AO2

FAA Disclaimer: The data displayed is for advisory purposes only and is not to be used for flight planning or operations.